TAF Text Data
IDs:
Format:
Raw Decoded Include METAR

Data at: 0620 UTC 24 Jan 2019

KPEQ 240615Z AUTO 21006KT 10SM CLR 02/M10 A3002 RMK AO2 T00181102

KPEQ 240520Z 2406/2506 25006KT P6SM SKC
  FM241700 32015G25KT P6SM SKC
  FM250000 03010KT P6SM SKC